sensor_id;sensor_type;location;lat;lon;timestamp;P1;durP1;ratioP1;P2;durP2;ratioP2
54853;SDS011;40747;49.480;8.658;2023-08-06T00:00:03;2.55;;;1.77;;
54853;SDS011;40747;49.480;8.658;2023-08-06T00:02:29;2.88;;;1.77;;
54853;SDS011;40747;49.480;8.658;2023-08-06T00:04:55;2.17;;;1.30;;
54853;SDS011;40747;49.480;8.658;2023-08-06T00:07:20;3.92;;;1.80;;
54853;SDS011;40747;49.480;8.658;2023-08-06T00:09:45;1.38;;;1.23;;
54853;SDS011;40747;49.480;8.658;2023-08-06T00:12:11;1.80;;;1.70;;
54853;SDS011;40747;49.480;8.658;2023-08-06T00:14:36;2.83;;;1.42;;
54853;SDS011;40747;49.480;8.658;2023-08-06T00:17:01;1.58;;;1.10;;
54853;SDS011;40747;49.480;8.658;2023-08-06T00:19:27;3.30;;;1.35;;
54853;SDS011;40747;49.480;8.658;2023-08-06T00:21:52;2.03;;;1.45;;
54853;SDS011;40747;49.480;8.658;2023-08-06T00:24:17;4.63;;;1.80;;
54853;SDS011;40747;49.480;8.658;2023-08-06T00:26:43;3.17;;;1.83;;
54853;SDS011;40747;49.480;8.658;2023-08-06T00:29:08;2.53;;;1.65;;
54853;SDS011;40747;49.480;8.658;2023-08-06T00:31:33;1.77;;;1.42;;
54853;SDS011;40747;49.480;8.658;2023-08-06T00:33:58;2.35;;;1.35;;
54853;SDS011;40747;49.480;8.658;2023-08-06T00:36:24;4.00;;;1.83;;
54853;SDS011;40747;49.480;8.658;2023-08-06T00:38:49;2.30;;;1.45;;
54853;SDS011;40747;49.480;8.658;2023-08-06T00:41:14;6.18;;;1.35;;
54853;SDS011;40747;49.480;8.658;2023-08-06T00:43:40;2.53;;;1.33;;
54853;SDS011;40747;49.480;8.658;2023-08-06T00:46:05;1.88;;;1.45;;
54853;SDS011;40747;49.480;8.658;2023-08-06T00:48:31;1.88;;;1.40;;
54853;SDS011;40747;49.480;8.658;2023-08-06T00:50:56;2.38;;;1.20;;
54853;SDS011;40747;49.480;8.658;2023-08-06T00:53:22;3.20;;;1.40;;
54853;SDS011;40747;49.480;8.658;2023-08-06T00:55:48;2.25;;;1.73;;
54853;SDS011;40747;49.480;8.658;2023-08-06T00:58:13;3.17;;;1.67;;
54853;SDS011;40747;49.480;8.658;2023-08-06T01:00:41;2.53;;;1.05;;
54853;SDS011;40747;49.480;8.658;2023-08-06T01:03:06;1.95;;;1.23;;
54853;SDS011;40747;49.480;8.658;2023-08-06T01:05:31;2.33;;;1.17;;
54853;SDS011;40747;49.480;8.658;2023-08-06T01:10:57;4.80;;;1.45;;
54853;SDS011;40747;49.480;8.658;2023-08-06T01:13:45;1.30;;;0.90;;
54853;SDS011;40747;49.480;8.658;2023-08-06T01:16:14;1.73;;;1.02;;
54853;SDS011;40747;49.480;8.658;2023-08-06T01:18:42;1.42;;;1.33;;
54853;SDS011;40747;49.480;8.658;2023-08-06T01:21:11;2.67;;;1.50;;
54853;SDS011;40747;49.480;8.658;2023-08-06T01:23:36;3.65;;;1.40;;
54853;SDS011;40747;49.480;8.658;2023-08-06T01:27:03;2.15;;;1.33;;
54853;SDS011;40747;49.480;8.658;2023-08-06T01:32:14;2.15;;;1.30;;
54853;SDS011;40747;49.480;8.658;2023-08-06T01:34:41;3.17;;;1.38;;
54853;SDS011;40747;49.480;8.658;2023-08-06T01:37:10;2.17;;;1.27;;
54853;SDS011;40747;49.480;8.658;2023-08-06T01:39:36;1.77;;;1.38;;
54853;SDS011;40747;49.480;8.658;2023-08-06T01:42:01;2.65;;;1.50;;
54853;SDS011;40747;49.480;8.658;2023-08-06T01:44:27;1.85;;;1.48;;
54853;SDS011;40747;49.480;8.658;2023-08-06T01:46:53;2.53;;;1.48;;
54853;SDS011;40747;49.480;8.658;2023-08-06T01:49:18;1.38;;;1.00;;
54853;SDS011;40747;49.480;8.658;2023-08-06T01:51:43;1.98;;;1.00;;
54853;SDS011;40747;49.480;8.658;2023-08-06T01:54:09;3.90;;;1.25;;
54853;SDS011;40747;49.480;8.658;2023-08-06T01:56:34;1.05;;;0.70;;
54853;SDS011;40747;49.480;8.658;2023-08-06T01:58:59;2.90;;;1.20;;
54853;SDS011;40747;49.480;8.658;2023-08-06T02:01:25;1.52;;;1.17;;
54853;SDS011;40747;49.480;8.658;2023-08-06T02:03:50;3.72;;;1.60;;
54853;SDS011;40747;49.480;8.658;2023-08-06T02:06:15;1.98;;;1.17;;
54853;SDS011;40747;49.480;8.658;2023-08-06T02:08:41;1.25;;;0.90;;
54853;SDS011;40747;49.480;8.658;2023-08-06T02:11:06;1.85;;;1.05;;
54853;SDS011;40747;49.480;8.658;2023-08-06T02:13:32;2.60;;;1.08;;
54853;SDS011;40747;49.480;8.658;2023-08-06T02:15:57;1.90;;;1.42;;
54853;SDS011;40747;49.480;8.658;2023-08-06T02:18:23;1.67;;;1.40;;
54853;SDS011;40747;49.480;8.658;2023-08-06T02:20:54;1.98;;;1.13;;
54853;SDS011;40747;49.480;8.658;2023-08-06T02:23:22;2.83;;;1.25;;
54853;SDS011;40747;49.480;8.658;2023-08-06T02:25:47;3.63;;;1.35;;
54853;SDS011;40747;49.480;8.658;2023-08-06T02:28:12;1.30;;;0.95;;
54853;SDS011;40747;49.480;8.658;2023-08-06T02:30:38;1.52;;;0.98;;
54853;SDS011;40747;49.480;8.658;2023-08-06T02:33:03;1.58;;;1.08;;
54853;SDS011;40747;49.480;8.658;2023-08-06T02:35:28;2.25;;;1.52;;
54853;SDS011;40747;49.480;8.658;2023-08-06T02:37:54;2.20;;;1.10;;
54853;SDS011;40747;49.480;8.658;2023-08-06T02:40:19;1.27;;;1.08;;
54853;SDS011;40747;49.480;8.658;2023-08-06T02:42:44;1.40;;;1.00;;
54853;SDS011;40747;49.480;8.658;2023-08-06T02:45:09;1.60;;;1.25;;
54853;SDS011;40747;49.480;8.658;2023-08-06T02:47:35;1.92;;;1.05;;
54853;SDS011;40747;49.480;8.658;2023-08-06T02:50:00;2.20;;;1.10;;
54853;SDS011;40747;49.480;8.658;2023-08-06T02:52:25;3.83;;;1.20;;
54853;SDS011;40747;49.480;8.658;2023-08-06T02:54:51;2.15;;;1.33;;
54853;SDS011;40747;49.480;8.658;2023-08-06T02:57:16;3.60;;;1.17;;
54853;SDS011;40747;49.480;8.658;2023-08-06T02:59:42;2.78;;;1.20;;
54853;SDS011;40747;49.480;8.658;2023-08-06T03:02:07;5.68;;;1.25;;
54853;SDS011;40747;49.480;8.658;2023-08-06T03:04:32;2.40;;;1.23;;
54853;SDS011;40747;49.480;8.658;2023-08-06T03:06:58;2.33;;;1.33;;
54853;SDS011;40747;49.480;8.658;2023-08-06T03:09:23;2.00;;;1.10;;
54853;SDS011;40747;49.480;8.658;2023-08-06T03:11:48;1.95;;;1.10;;
54853;SDS011;40747;49.480;8.658;2023-08-06T03:14:14;1.08;;;0.93;;
54853;SDS011;40747;49.480;8.658;2023-08-06T03:16:39;1.70;;;0.98;;
54853;SDS011;40747;49.480;8.658;2023-08-06T03:19:04;1.52;;;1.15;;
54853;SDS011;40747;49.480;8.658;2023-08-06T03:21:30;2.17;;;1.13;;
54853;SDS011;40747;49.480;8.658;2023-08-06T03:23:55;4.03;;;1.35;;
54853;SDS011;40747;49.480;8.658;2023-08-06T03:26:20;3.10;;;1.00;;
54853;SDS011;40747;49.480;8.658;2023-08-06T03:28:46;2.15;;;0.80;;
54853;SDS011;40747;49.480;8.658;2023-08-06T03:31:11;1.20;;;0.70;;
54853;SDS011;40747;49.480;8.658;2023-08-06T03:33:36;1.65;;;0.90;;
54853;SDS011;40747;49.480;8.658;2023-08-06T03:36:02;1.17;;;0.80;;
54853;SDS011;40747;49.480;8.658;2023-08-06T03:38:27;1.50;;;0.90;;
54853;SDS011;40747;49.480;8.658;2023-08-06T03:40:52;1.08;;;0.88;;
54853;SDS011;40747;49.480;8.658;2023-08-06T03:43:18;1.10;;;0.60;;
54853;SDS011;40747;49.480;8.658;2023-08-06T03:45:43;3.25;;;0.80;;
54853;SDS011;40747;49.480;8.658;2023-08-06T03:48:09;1.83;;;0.90;;
54853;SDS011;40747;49.480;8.658;2023-08-06T03:50:34;1.65;;;0.98;;
54853;SDS011;40747;49.480;8.658;2023-08-06T03:52:59;2.40;;;0.82;;
54853;SDS011;40747;49.480;8.658;2023-08-06T03:55:25;3.53;;;0.85;;
54853;SDS011;40747;49.480;8.658;2023-08-06T03:57:50;2.38;;;1.13;;
54853;SDS011;40747;49.480;8.658;2023-08-06T04:00:16;2.83;;;0.90;;
54853;SDS011;40747;49.480;8.658;2023-08-06T04:02:41;3.50;;;1.13;;
54853;SDS011;40747;49.480;8.658;2023-08-06T04:05:07;2.08;;;1.08;;
54853;SDS011;40747;49.480;8.658;2023-08-06T04:07:33;3.63;;;1.10;;
54853;SDS011;40747;49.480;8.658;2023-08-06T04:09:59;4.20;;;1.02;;
54853;SDS011;40747;49.480;8.658;2023-08-06T04:12:26;3.90;;;1.10;;
54853;SDS011;40747;49.480;8.658;2023-08-06T04:14:52;4.72;;;1.45;;
54853;SDS011;40747;49.480;8.658;2023-08-06T04:17:18;1.20;;;0.55;;
54853;SDS011;40747;49.480;8.658;2023-08-06T04:19:52;1.60;;;0.90;;
54853;SDS011;40747;49.480;8.658;2023-08-06T04:22:18;1.50;;;1.08;;
54853;SDS011;40747;49.480;8.658;2023-08-06T04:24:44;1.65;;;0.88;;
54853;SDS011;40747;49.480;8.658;2023-08-06T04:27:10;4.35;;;1.08;;
54853;SDS011;40747;49.480;8.658;2023-08-06T04:29:36;1.80;;;0.80;;
54853;SDS011;40747;49.480;8.658;2023-08-06T04:32:03;1.25;;;1.10;;
54853;SDS011;40747;49.480;8.658;2023-08-06T04:34:29;3.22;;;0.70;;
54853;SDS011;40747;49.480;8.658;2023-08-06T04:36:54;3.15;;;0.77;;
54853;SDS011;40747;49.480;8.658;2023-08-06T04:39:19;2.58;;;1.05;;
54853;SDS011;40747;49.480;8.658;2023-08-06T04:41:45;2.05;;;0.65;;
54853;SDS011;40747;49.480;8.658;2023-08-06T04:44:10;1.20;;;0.55;;
54853;SDS011;40747;49.480;8.658;2023-08-06T04:46:36;1.88;;;0.52;;
54853;SDS011;40747;49.480;8.658;2023-08-06T04:49:01;2.50;;;0.50;;
54853;SDS011;40747;49.480;8.658;2023-08-06T04:51:26;0.40;;;0.40;;
54853;SDS011;40747;49.480;8.658;2023-08-06T04:53:52;4.38;;;0.93;;
54853;SDS011;40747;49.480;8.658;2023-08-06T04:56:17;2.47;;;0.63;;
54853;SDS011;40747;49.480;8.658;2023-08-06T04:58:42;1.30;;;0.50;;
54853;SDS011;40747;49.480;8.658;2023-08-06T05:01:08;2.38;;;0.50;;
54853;SDS011;40747;49.480;8.658;2023-08-06T05:03:33;1.52;;;0.63;;
54853;SDS011;40747;49.480;8.658;2023-08-06T05:05:58;0.60;;;0.40;;
54853;SDS011;40747;49.480;8.658;2023-08-06T05:08:24;0.77;;;0.43;;
54853;SDS011;40747;49.480;8.658;2023-08-06T05:10:49;2.50;;;0.52;;
54853;SDS011;40747;49.480;8.658;2023-08-06T05:13:15;4.60;;;0.55;;
54853;SDS011;40747;49.480;8.658;2023-08-06T05:15:41;2.22;;;0.55;;
54853;SDS011;40747;49.480;8.658;2023-08-06T05:18:07;1.55;;;0.32;;
54853;SDS011;40747;49.480;8.658;2023-08-06T05:20:35;4.03;;;0.50;;
54853;SDS011;40747;49.480;8.658;2023-08-06T05:23:02;1.40;;;0.60;;
54853;SDS011;40747;49.480;8.658;2023-08-06T05:25:27;3.33;;;0.52;;
54853;SDS011;40747;49.480;8.658;2023-08-06T05:27:52;0.80;;;0.57;;
54853;SDS011;40747;49.480;8.658;2023-08-06T05:30:18;5.90;;;0.73;;
54853;SDS011;40747;49.480;8.658;2023-08-06T05:32:43;2.50;;;0.50;;
54853;SDS011;40747;49.480;8.658;2023-08-06T05:35:09;4.20;;;0.85;;
54853;SDS011;40747;49.480;8.658;2023-08-06T05:37:34;0.55;;;0.50;;
54853;SDS011;40747;49.480;8.658;2023-08-06T05:39:59;4.57;;;0.85;;
54853;SDS011;40747;49.480;8.658;2023-08-06T05:42:24;1.60;;;0.50;;
54853;SDS011;40747;49.480;8.658;2023-08-06T05:44:50;0.85;;;0.40;;
54853;SDS011;40747;49.480;8.658;2023-08-06T05:47:15;0.35;;;0.35;;
54853;SDS011;40747;49.480;8.658;2023-08-06T05:49:40;2.10;;;0.38;;
54853;SDS011;40747;49.480;8.658;2023-08-06T05:52:05;2.95;;;0.70;;
54853;SDS011;40747;49.480;8.658;2023-08-06T05:54:33;1.10;;;0.68;;
54853;SDS011;40747;49.480;8.658;2023-08-06T05:56:58;1.45;;;0.38;;
54853;SDS011;40747;49.480;8.658;2023-08-06T05:59:23;2.65;;;0.65;;
54853;SDS011;40747;49.480;8.658;2023-08-06T06:01:49;2.13;;;0.60;;
54853;SDS011;40747;49.480;8.658;2023-08-06T06:04:14;2.75;;;0.60;;
54853;SDS011;40747;49.480;8.658;2023-08-06T06:06:39;8.30;;;1.10;;
54853;SDS011;40747;49.480;8.658;2023-08-06T06:09:06;0.80;;;0.30;;
54853;SDS011;40747;49.480;8.658;2023-08-06T06:11:32;1.55;;;0.60;;
54853;SDS011;40747;49.480;8.658;2023-08-06T06:13:57;4.57;;;0.70;;
54853;SDS011;40747;49.480;8.658;2023-08-06T06:16:22;1.55;;;0.40;;
54853;SDS011;40747;49.480;8.658;2023-08-06T06:18:48;0.75;;;0.35;;
54853;SDS011;40747;49.480;8.658;2023-08-06T06:21:13;4.78;;;0.88;;
54853;SDS011;40747;49.480;8.658;2023-08-06T06:23:38;4.03;;;0.50;;
54853;SDS011;40747;49.480;8.658;2023-08-06T06:26:04;0.40;;;0.30;;
54853;SDS011;40747;49.480;8.658;2023-08-06T06:28:29;2.05;;;0.65;;
54853;SDS011;40747;49.480;8.658;2023-08-06T06:30:59;4.10;;;0.30;;
54853;SDS011;40747;49.480;8.658;2023-08-06T06:33:26;1.85;;;0.38;;
54853;SDS011;40747;49.480;8.658;2023-08-06T06:35:51;0.95;;;0.30;;
54853;SDS011;40747;49.480;8.658;2023-08-06T06:38:16;2.78;;;0.47;;
54853;SDS011;40747;49.480;8.658;2023-08-06T06:40:42;0.98;;;0.70;;
54853;SDS011;40747;49.480;8.658;2023-08-06T06:43:07;1.75;;;0.40;;
54853;SDS011;40747;49.480;8.658;2023-08-06T06:45:32;1.45;;;0.80;;
54853;SDS011;40747;49.480;8.658;2023-08-06T06:47:57;2.83;;;0.40;;
54853;SDS011;40747;49.480;8.658;2023-08-06T06:50:23;0.65;;;0.28;;
54853;SDS011;40747;49.480;8.658;2023-08-06T06:52:49;4.40;;;0.30;;
54853;SDS011;40747;49.480;8.658;2023-08-06T06:55:17;4.13;;;0.98;;
54853;SDS011;40747;49.480;8.658;2023-08-06T06:57:42;2.75;;;0.25;;
54853;SDS011;40747;49.480;8.658;2023-08-06T07:00:08;2.13;;;0.63;;
54853;SDS011;40747;49.480;8.658;2023-08-06T07:02:33;0.93;;;0.25;;
54853;SDS011;40747;49.480;8.658;2023-08-06T07:04:59;0.85;;;0.35;;
54853;SDS011;40747;49.480;8.658;2023-08-06T07:07:24;0.15;;;0.15;;
54853;SDS011;40747;49.480;8.658;2023-08-06T07:09:49;1.58;;;0.20;;
54853;SDS011;40747;49.480;8.658;2023-08-06T07:12:15;1.23;;;0.52;;
54853;SDS011;40747;49.480;8.658;2023-08-06T07:14:40;1.10;;;0.40;;
54853;SDS011;40747;49.480;8.658;2023-08-06T07:17:05;2.15;;;0.50;;
54853;SDS011;40747;49.480;8.658;2023-08-06T07:19:31;0.60;;;0.30;;
54853;SDS011;40747;49.480;8.658;2023-08-06T07:21:56;0.93;;;0.40;;
54853;SDS011;40747;49.480;8.658;2023-08-06T07:24:21;1.30;;;0.40;;
54853;SDS011;40747;49.480;8.658;2023-08-06T07:26:46;2.22;;;0.30;;
54853;SDS011;40747;49.480;8.658;2023-08-06T07:29:12;0.82;;;0.32;;
54853;SDS011;40747;49.480;8.658;2023-08-06T07:31:37;2.83;;;0.22;;
54853;SDS011;40747;49.480;8.658;2023-08-06T07:34:03;0.20;;;0.20;;
54853;SDS011;40747;49.480;8.658;2023-08-06T07:36:28;0.52;;;0.13;;
54853;SDS011;40747;49.480;8.658;2023-08-06T07:38:54;0.98;;;0.35;;
54853;SDS011;40747;49.480;8.658;2023-08-06T07:41:24;0.65;;;0.30;;
54853;SDS011;40747;49.480;8.658;2023-08-06T07:43:51;0.20;;;0.20;;
54853;SDS011;40747;49.480;8.658;2023-08-06T07:46:16;0.35;;;0.17;;
54853;SDS011;40747;49.480;8.658;2023-08-06T07:48:42;0.00;;;0.00;;
54853;SDS011;40747;49.480;8.658;2023-08-06T07:51:07;0.10;;;0.10;;
54853;SDS011;40747;49.480;8.658;2023-08-06T07:53:32;0.10;;;0.10;;
54853;SDS011;40747;49.480;8.658;2023-08-06T07:55:58;0.93;;;0.30;;
54853;SDS011;40747;49.480;8.658;2023-08-06T07:58:24;0.17;;;0.17;;
54853;SDS011;40747;49.480;8.658;2023-08-06T08:00:50;1.58;;;0.20;;
54853;SDS011;40747;49.480;8.658;2023-08-06T08:03:15;0.47;;;0.17;;
54853;SDS011;40747;49.480;8.658;2023-08-06T08:05:42;2.17;;;0.57;;
54853;SDS011;40747;49.480;8.658;2023-08-06T08:08:08;1.85;;;0.20;;
54853;SDS011;40747;49.480;8.658;2023-08-06T08:10:34;0.40;;;0.20;;
54853;SDS011;40747;49.480;8.658;2023-08-06T08:13:00;0.75;;;0.28;;
54853;SDS011;40747;49.480;8.658;2023-08-06T08:15:28;0.60;;;0.28;;
54853;SDS011;40747;49.480;8.658;2023-08-06T08:17:54;0.10;;;0.10;;
54853;SDS011;40747;49.480;8.658;2023-08-06T08:20:20;0.20;;;0.20;;
54853;SDS011;40747;49.480;8.658;2023-08-06T08:22:45;0.15;;;0.15;;
54853;SDS011;40747;49.480;8.658;2023-08-06T08:25:11;0.10;;;0.10;;
54853;SDS011;40747;49.480;8.658;2023-08-06T08:27:36;0.20;;;0.10;;
54853;SDS011;40747;49.480;8.658;2023-08-06T08:30:01;1.10;;;0.40;;
54853;SDS011;40747;49.480;8.658;2023-08-06T08:32:27;2.03;;;0.47;;
54853;SDS011;40747;49.480;8.658;2023-08-06T08:34:53;0.30;;;0.13;;
54853;SDS011;40747;49.480;8.658;2023-08-06T08:37:18;0.10;;;0.10;;
54853;SDS011;40747;49.480;8.658;2023-08-06T08:39:44;0.30;;;0.30;;
54853;SDS011;40747;49.480;8.658;2023-08-06T08:42:09;0.10;;;0.10;;
54853;SDS011;40747;49.480;8.658;2023-08-06T08:44:35;0.32;;;0.30;;
54853;SDS011;40747;49.480;8.658;2023-08-06T08:47:04;3.30;;;0.20;;
54853;SDS011;40747;49.480;8.658;2023-08-06T08:49:36;0.45;;;0.13;;
54853;SDS011;40747;49.480;8.658;2023-08-06T08:52:03;0.65;;;0.40;;
54853;SDS011;40747;49.480;8.658;2023-08-06T08:54:35;0.20;;;0.20;;
54853;SDS011;40747;49.480;8.658;2023-08-06T08:57:03;0.15;;;0.10;;
54853;SDS011;40747;49.480;8.658;2023-08-06T08:59:28;0.25;;;0.20;;
54853;SDS011;40747;49.480;8.658;2023-08-06T09:01:54;0.17;;;0.17;;
54853;SDS011;40747;49.480;8.658;2023-08-06T09:04:20;0.47;;;0.20;;
54853;SDS011;40747;49.480;8.658;2023-08-06T09:06:47;0.60;;;0.20;;
54853;SDS011;40747;49.480;8.658;2023-08-06T09:09:17;0.22;;;0.22;;
54853;SDS011;40747;49.480;8.658;2023-08-06T09:11:50;0.52;;;0.20;;
54853;SDS011;40747;49.480;8.658;2023-08-06T09:14:16;3.08;;;0.22;;
54853;SDS011;40747;49.480;8.658;2023-08-06T09:16:42;0.10;;;0.10;;
54853;SDS011;40747;49.480;8.658;2023-08-06T09:19:11;0.20;;;0.20;;
54853;SDS011;40747;49.480;8.658;2023-08-06T09:21:38;0.40;;;0.20;;
54853;SDS011;40747;49.480;8.658;2023-08-06T09:24:11;0.20;;;0.20;;
54853;SDS011;40747;49.480;8.658;2023-08-06T09:26:37;0.68;;;0.20;;
54853;SDS011;40747;49.480;8.658;2023-08-06T09:29:07;0.45;;;0.20;;
54853;SDS011;40747;49.480;8.658;2023-08-06T09:31:51;0.30;;;0.20;;
54853;SDS011;40747;49.480;8.658;2023-08-06T09:34:21;0.32;;;0.30;;
54853;SDS011;40747;49.480;8.658;2023-08-06T09:36:56;1.65;;;0.15;;
54853;SDS011;40747;49.480;8.658;2023-08-06T09:39:26;0.80;;;0.20;;
54853;SDS011;40747;49.480;8.658;2023-08-06T09:41:55;1.17;;;0.30;;
54853;SDS011;40747;49.480;8.658;2023-08-06T09:44:22;0.35;;;0.28;;
54853;SDS011;40747;49.480;8.658;2023-08-06T09:46:49;0.20;;;0.20;;
54853;SDS011;40747;49.480;8.658;2023-08-06T09:49:17;0.10;;;0.10;;
54853;SDS011;40747;49.480;8.658;2023-08-06T09:51:43;0.17;;;0.13;;
54853;SDS011;40747;49.480;8.658;2023-08-06T09:54:09;0.70;;;0.10;;
54853;SDS011;40747;49.480;8.658;2023-08-06T09:56:37;0.43;;;0.17;;
54853;SDS011;40747;49.480;8.658;2023-08-06T09:59:06;0.10;;;0.10;;
54853;SDS011;40747;49.480;8.658;2023-08-06T10:01:35;0.30;;;0.20;;
54853;SDS011;40747;49.480;8.658;2023-08-06T10:04:04;1.30;;;0.20;;
54853;SDS011;40747;49.480;8.658;2023-08-06T10:06:33;0.32;;;0.20;;
54853;SDS011;40747;49.480;8.658;2023-08-06T10:09:05;2.28;;;0.22;;
54853;SDS011;40747;49.480;8.658;2023-08-06T10:11:31;0.15;;;0.15;;
54853;SDS011;40747;49.480;8.658;2023-08-06T10:16:41;0.28;;;0.28;;
54853;SDS011;40747;49.480;8.658;2023-08-06T10:19:07;0.30;;;0.20;;
54853;SDS011;40747;49.480;8.658;2023-08-06T10:21:34;0.20;;;0.20;;
54853;SDS011;40747;49.480;8.658;2023-08-06T10:24:00;0.40;;;0.10;;
54853;SDS011;40747;49.480;8.658;2023-08-06T10:26:27;0.10;;;0.10;;
54853;SDS011;40747;49.480;8.658;2023-08-06T10:28:53;0.20;;;0.20;;
54853;SDS011;40747;49.480;8.658;2023-08-06T10:31:18;1.35;;;0.10;;
54853;SDS011;40747;49.480;8.658;2023-08-06T10:33:45;0.10;;;0.10;;
54853;SDS011;40747;49.480;8.658;2023-08-06T10:36:12;0.45;;;0.20;;
54853;SDS011;40747;49.480;8.658;2023-08-06T10:38:45;0.20;;;0.17;;
54853;SDS011;40747;49.480;8.658;2023-08-06T10:41:28;1.55;;;0.10;;
54853;SDS011;40747;49.480;8.658;2023-08-06T10:44:07;0.10;;;0.10;;
54853;SDS011;40747;49.480;8.658;2023-08-06T10:46:33;0.15;;;0.10;;
54853;SDS011;40747;49.480;8.658;2023-08-06T10:48:59;0.55;;;0.30;;
54853;SDS011;40747;49.480;8.658;2023-08-06T10:51:24;0.10;;;0.10;;
54853;SDS011;40747;49.480;8.658;2023-08-06T10:53:50;0.40;;;0.20;;
54853;SDS011;40747;49.480;8.658;2023-08-06T10:56:20;0.10;;;0.10;;
54853;SDS011;40747;49.480;8.658;2023-08-06T10:58:51;0.08;;;0.08;;
54853;SDS011;40747;49.480;8.658;2023-08-06T11:01:18;0.13;;;0.13;;
54853;SDS011;40747;49.480;8.658;2023-08-06T11:03:45;0.20;;;0.15;;
54853;SDS011;40747;49.480;8.658;2023-08-06T11:06:16;0.30;;;0.10;;
54853;SDS011;40747;49.480;8.658;2023-08-06T11:08:50;0.57;;;0.20;;
54853;SDS011;40747;49.480;8.658;2023-08-06T11:11:17;0.20;;;0.20;;
54853;SDS011;40747;49.480;8.658;2023-08-06T11:13:43;0.20;;;0.20;;
54853;SDS011;40747;49.480;8.658;2023-08-06T11:16:11;0.30;;;0.20;;
54853;SDS011;40747;49.480;8.658;2023-08-06T11:18:38;0.45;;;0.20;;
54853;SDS011;40747;49.480;8.658;2023-08-06T11:21:05;0.68;;;0.38;;
54853;SDS011;40747;49.480;8.658;2023-08-06T11:23:30;0.20;;;0.20;;
54853;SDS011;40747;49.480;8.658;2023-08-06T11:25:56;1.10;;;0.20;;
54853;SDS011;40747;49.480;8.658;2023-08-06T11:28:21;0.20;;;0.10;;
54853;SDS011;40747;49.480;8.658;2023-08-06T11:30:47;0.73;;;0.40;;
54853;SDS011;40747;49.480;8.658;2023-08-06T11:33:13;1.77;;;0.32;;
54853;SDS011;40747;49.480;8.658;2023-08-06T11:35:39;2.60;;;0.30;;
54853;SDS011;40747;49.480;8.658;2023-08-06T11:38:05;0.20;;;0.20;;
54853;SDS011;40747;49.480;8.658;2023-08-06T11:40:31;0.28;;;0.10;;
54853;SDS011;40747;49.480;8.658;2023-08-06T11:42:57;0.20;;;0.20;;
54853;SDS011;40747;49.480;8.658;2023-08-06T11:45:26;0.20;;;0.10;;
54853;SDS011;40747;49.480;8.658;2023-08-06T11:47:51;0.40;;;0.20;;
54853;SDS011;40747;49.480;8.658;2023-08-06T11:50:27;0.10;;;0.10;;
54853;SDS011;40747;49.480;8.658;2023-08-06T11:52:59;0.40;;;0.20;;
54853;SDS011;40747;49.480;8.658;2023-08-06T11:55:26;0.30;;;0.17;;
54853;SDS011;40747;49.480;8.658;2023-08-06T11:57:53;0.20;;;0.20;;
54853;SDS011;40747;49.480;8.658;2023-08-06T12:00:19;0.10;;;0.10;;
54853;SDS011;40747;49.480;8.658;2023-08-06T12:02:48;2.88;;;0.43;;
54853;SDS011;40747;49.480;8.658;2023-08-06T12:05:16;0.60;;;0.20;;
54853;SDS011;40747;49.480;8.658;2023-08-06T12:07:52;0.10;;;0.10;;
54853;SDS011;40747;49.480;8.658;2023-08-06T12:10:20;0.20;;;0.20;;
54853;SDS011;40747;49.480;8.658;2023-08-06T12:12:47;0.15;;;0.15;;
54853;SDS011;40747;49.480;8.658;2023-08-06T12:15:13;0.63;;;0.40;;
54853;SDS011;40747;49.480;8.658;2023-08-06T12:17:38;0.95;;;0.40;;
54853;SDS011;40747;49.480;8.658;2023-08-06T12:20:04;1.30;;;0.50;;
54853;SDS011;40747;49.480;8.658;2023-08-06T12:22:31;0.43;;;0.30;;
54853;SDS011;40747;49.480;8.658;2023-08-06T12:25:00;0.30;;;0.30;;
54853;SDS011;40747;49.480;8.658;2023-08-06T12:27:31;2.17;;;0.50;;
54853;SDS011;40747;49.480;8.658;2023-08-06T12:29:57;0.73;;;0.40;;
54853;SDS011;40747;49.480;8.658;2023-08-06T12:32:22;0.45;;;0.40;;
54853;SDS011;40747;49.480;8.658;2023-08-06T12:34:47;0.80;;;0.40;;
54853;SDS011;40747;49.480;8.658;2023-08-06T12:37:13;1.23;;;0.40;;
54853;SDS011;40747;49.480;8.658;2023-08-06T12:39:38;1.65;;;0.47;;
54853;SDS011;40747;49.480;8.658;2023-08-06T12:42:04;0.57;;;0.45;;
54853;SDS011;40747;49.480;8.658;2023-08-06T12:44:31;1.75;;;0.32;;
54853;SDS011;40747;49.480;8.658;2023-08-06T12:46:56;0.68;;;0.50;;
54853;SDS011;40747;49.480;8.658;2023-08-06T12:49:22;2.08;;;0.47;;
54853;SDS011;40747;49.480;8.658;2023-08-06T12:51:48;0.30;;;0.30;;
54853;SDS011;40747;49.480;8.658;2023-08-06T12:54:14;2.30;;;0.60;;
54853;SDS011;40747;49.480;8.658;2023-08-06T12:56:41;0.98;;;0.30;;
54853;SDS011;40747;49.480;8.658;2023-08-06T12:59:06;0.75;;;0.50;;
54853;SDS011;40747;49.480;8.658;2023-08-06T13:01:31;0.65;;;0.20;;
54853;SDS011;40747;49.480;8.658;2023-08-06T13:03:57;0.30;;;0.30;;
54853;SDS011;40747;49.480;8.658;2023-08-06T13:06:23;1.25;;;0.40;;
54853;SDS011;40747;49.480;8.658;2023-08-06T13:08:48;0.32;;;0.30;;
54853;SDS011;40747;49.480;8.658;2023-08-06T13:11:14;0.68;;;0.43;;
54853;SDS011;40747;49.480;8.658;2023-08-06T13:13:39;0.75;;;0.32;;
54853;SDS011;40747;49.480;8.658;2023-08-06T13:16:04;4.00;;;0.40;;
54853;SDS011;40747;49.480;8.658;2023-08-06T13:18:30;0.98;;;0.30;;
54853;SDS011;40747;49.480;8.658;2023-08-06T13:20:56;0.57;;;0.22;;
54853;SDS011;40747;49.480;8.658;2023-08-06T13:23:21;0.63;;;0.43;;
54853;SDS011;40747;49.480;8.658;2023-08-06T13:25:46;0.68;;;0.30;;
54853;SDS011;40747;49.480;8.658;2023-08-06T13:28:12;1.13;;;0.40;;
54853;SDS011;40747;49.480;8.658;2023-08-06T13:30:40;0.20;;;0.20;;
54853;SDS011;40747;49.480;8.658;2023-08-06T13:33:09;0.35;;;0.30;;
54853;SDS011;40747;49.480;8.658;2023-08-06T13:35:34;0.85;;;0.40;;
54853;SDS011;40747;49.480;8.658;2023-08-06T13:38:00;0.52;;;0.30;;
54853;SDS011;40747;49.480;8.658;2023-08-06T13:40:27;0.43;;;0.20;;
54853;SDS011;40747;49.480;8.658;2023-08-06T13:42:53;0.57;;;0.30;;
54853;SDS011;40747;49.480;8.658;2023-08-06T13:45:18;0.45;;;0.35;;
54853;SDS011;40747;49.480;8.658;2023-08-06T13:47:46;1.65;;;0.40;;
54853;SDS011;40747;49.480;8.658;2023-08-06T13:50:11;0.85;;;0.52;;
54853;SDS011;40747;49.480;8.658;2023-08-06T13:52:37;2.75;;;0.30;;
54853;SDS011;40747;49.480;8.658;2023-08-06T13:55:02;0.10;;;0.10;;
54853;SDS011;40747;49.480;8.658;2023-08-06T13:57:29;1.95;;;0.40;;
54853;SDS011;40747;49.480;8.658;2023-08-06T13:59:54;0.20;;;0.20;;
54853;SDS011;40747;49.480;8.658;2023-08-06T14:02:20;1.13;;;0.55;;
54853;SDS011;40747;49.480;8.658;2023-08-06T14:04:45;0.40;;;0.25;;
54853;SDS011;40747;49.480;8.658;2023-08-06T14:07:10;0.90;;;0.45;;
54853;SDS011;40747;49.480;8.658;2023-08-06T14:09:36;0.98;;;0.47;;
54853;SDS011;40747;49.480;8.658;2023-08-06T14:12:01;0.20;;;0.20;;
54853;SDS011;40747;49.480;8.658;2023-08-06T14:14:28;0.30;;;0.30;;
54853;SDS011;40747;49.480;8.658;2023-08-06T14:16:53;0.57;;;0.30;;
54853;SDS011;40747;49.480;8.658;2023-08-06T14:19:19;0.43;;;0.30;;
54853;SDS011;40747;49.480;8.658;2023-08-06T14:21:45;0.47;;;0.30;;
54853;SDS011;40747;49.480;8.658;2023-08-06T14:24:10;1.67;;;0.55;;
54853;SDS011;40747;49.480;8.658;2023-08-06T14:26:35;0.88;;;0.40;;
54853;SDS011;40747;49.480;8.658;2023-08-06T14:29:01;1.60;;;0.35;;
54853;SDS011;40747;49.480;8.658;2023-08-06T14:31:26;2.50;;;0.35;;
54853;SDS011;40747;49.480;8.658;2023-08-06T14:33:52;2.17;;;0.50;;
54853;SDS011;40747;49.480;8.658;2023-08-06T14:36:17;0.75;;;0.40;;
54853;SDS011;40747;49.480;8.658;2023-08-06T14:38:42;0.45;;;0.40;;
54853;SDS011;40747;49.480;8.658;2023-08-06T14:41:08;0.70;;;0.40;;
54853;SDS011;40747;49.480;8.658;2023-08-06T14:43:33;1.70;;;0.47;;
54853;SDS011;40747;49.480;8.658;2023-08-06T14:45:58;0.32;;;0.30;;
54853;SDS011;40747;49.480;8.658;2023-08-06T14:48:24;1.58;;;0.40;;
54853;SDS011;40747;49.480;8.658;2023-08-06T14:50:49;1.00;;;0.32;;